Time;durP1;ratioP1;P1;durP2;ratioP2;P2;SDS_P1;SDS_P2;PMS_P1;PMS_P2;Temp;Humidity;BMP_temperature;BMP_pressure;BME280_temperature;BME280_humidity;BME280_pressure;Samples;Min_cycle;Max_cycle;Signal;HPM_P1;HPM_P2
2021/12/10 00:02:31;;;;;;;9.15;5.65;;;;;;;4.88;86.00;92444.94;5099867;28;20138;-48
2021/12/10 00:04:57;;;;;;;8.65;5.85;;;;;;;4.91;85.48;92430.22;5102218;28;20027;-48
2021/12/10 00:07:25;;;;;;;360.55;34.55;;;;;;;5.08;85.22;92433.25;5100777;28;20112;-46
2021/12/10 00:10:00;;;;;;;7.23;4.60;;;;;;;5.10;85.08;92436.16;5098216;28;20497;-49
2021/12/10 00:12:33;;;;;;;15.85;5.70;;;;;;;5.03;84.59;92443.06;5098734;28;20058;-45
2021/12/10 00:14:58;;;;;;;11.50;6.13;;;;;;;4.89;84.92;92440.97;5098707;28;20039;-46
2021/12/10 00:17:24;;;;;;;12.80;6.28;;;;;;;4.81;85.36;92443.63;5099460;28;20051;-47
2021/12/10 00:19:54;;;;;;;9.32;5.75;;;;;;;4.79;86.47;92468.03;5102969;28;20492;-49
2021/12/10 00:22:38;;;;;;;12.23;4.75;;;;;;;4.92;86.34;92453.53;5101373;28;20115;-47
2021/12/10 00:25:12;;;;;;;8.52;5.68;;;;;;;5.00;86.03;92446.84;5103966;28;20028;-47
2021/12/10 00:27:37;;;;;;;15.13;5.10;;;;;;;5.12;86.02;92441.84;5099132;28;20024;-48
2021/12/10 00:30:24;;;;;;;8.88;5.20;;;;;;;5.25;86.04;92439.00;5101096;28;20032;-48
2021/12/10 00:33:15;;;;;;;92.38;14.60;;;;;;;5.25;86.07;92439.72;5100891;28;20027;-46
2021/12/10 00:35:41;;;;;;;10.80;4.78;;;;;;;5.39;85.73;92429.41;5101356;28;20024;-45
2021/12/10 00:38:08;;;;;;;8.48;5.60;;;;;;;5.40;85.84;92439.06;5099795;28;20035;-48
2021/12/10 00:40:34;;;;;;;8.63;5.45;;;;;;;5.37;85.83;92449.09;5102257;28;20409;-48
2021/12/10 00:43:00;;;;;;;9.75;5.65;;;;;;;5.39;85.79;92441.06;5102705;28;20028;-49
2021/12/10 00:45:26;;;;;;;11.23;6.10;;;;;;;5.51;85.41;92444.25;5099398;28;20104;-47
2021/12/10 00:47:52;;;;;;;11.23;5.93;;;;;;;5.49;85.38;92438.59;5101382;28;20024;-47
2021/12/10 00:50:22;;;;;;;16.13;6.57;;;;;;;5.55;85.28;92433.69;5099580;28;20122;-51
2021/12/10 00:52:49;;;;;;;13.77;5.65;;;;;;;5.60;84.98;92427.31;5097921;28;20027;-49
2021/12/10 00:55:15;;;;;;;14.88;5.57;;;;;;;5.61;84.46;92406.88;5100388;28;20019;-49
2021/12/10 00:57:41;;;;;;;10.20;5.35;;;;;;;5.56;84.63;92413.25;5098199;28;20500;-46
2021/12/10 01:00:12;;;;;;;11.25;5.50;;;;;;;5.62;84.67;92415.81;5100535;28;20038;-46
2021/12/10 01:02:37;;;;;;;12.75;5.60;;;;;;;5.51;84.60;92411.41;5098893;28;20076;-45
2021/12/10 01:05:04;;;;;;;15.57;6.28;;;;;;;5.47;84.67;92415.75;5100369;28;20028;-48
2021/12/10 01:07:32;;;;;;;10.93;5.10;;;;;;;5.35;85.15;92409.84;5099192;28;20019;-47
2021/12/10 01:10:02;;;;;;;221.00;21.42;;;;;;;5.43;85.14;92404.44;5099328;28;20028;-49
2021/12/10 01:12:38;;;;;;;16.75;7.88;;;;;;;5.66;84.92;92402.50;5100604;28;20055;-48
2021/12/10 01:26:11;;;;;;;96.60;11.60;;;;;;;6.05;83.74;92405.59;5097696;28;20062;-47
2021/12/10 01:28:40;;;;;;;9.05;4.47;;;;;;;5.99;84.01;92407.78;5098876;28;20036;-48
2021/12/10 01:31:05;;;;;;;15.40;8.15;;;;;;;6.04;84.01;92411.63;5099981;28;20108;-46
2021/12/10 01:33:32;;;;;;;9.60;5.50;;;;;;;6.06;84.46;92396.06;5101891;28;20521;-48
2021/12/10 01:35:59;;;;;;;8.32;4.55;;;;;;;6.15;84.30;92391.34;5099594;28;20026;-49
2021/12/10 01:38:25;;;;;;;11.95;6.85;;;;;;;6.13;84.53;92385.69;5098588;28;20407;-47
2021/12/10 01:40:57;;;;;;;8.10;4.72;;;;;;;6.11;85.07;92386.97;5097462;28;20020;-47
2021/12/10 01:43:24;;;;;;;10.93;4.60;;;;;;;6.24;84.62;92368.91;5097762;28;20030;-47
2021/12/10 01:46:01;;;;;;;7.10;4.25;;;;;;;6.35;84.56;92358.28;5097848;28;20223;-50
2021/12/10 01:48:37;;;;;;;6.60;4.18;;;;;;;6.32;84.30;92350.44;5098607;28;20016;-47
2021/12/10 01:51:04;;;;;;;6.85;4.97;;;;;;;6.25;84.38;92334.72;5097488;28;20518;-45
2021/12/10 01:53:32;;;;;;;9.85;4.85;;;;;;;6.16;84.50;92343.47;5098887;28;20016;-50
2021/12/10 01:56:00;;;;;;;9.52;6.25;;;;;;;6.28;85.04;92341.84;5099548;28;20079;-48
2021/12/10 01:58:29;;;;;;;7.80;4.93;;;;;;;6.26;84.89;92347.16;5097664;28;20020;-47
2021/12/10 02:00:58;;;;;;;7.68;4.78;;;;;;;6.21;85.01;92348.81;5098220;28;20076;-47
2021/12/10 02:03:24;;;;;;;5.13;4.30;;;;;;;6.22;84.64;92324.84;5098536;28;20026;-48
2021/12/10 02:05:50;;;;;;;9.50;4.93;;;;;;;6.42;85.02;92335.63;5100252;28;20030;-47
2021/12/10 02:08:16;;;;;;;8.93;4.43;;;;;;;6.53;84.34;92340.75;5099110;28;20016;-48
2021/12/10 02:10:41;;;;;;;8.75;4.70;;;;;;;6.45;84.20;92322.84;5097235;28;20084;-47
2021/12/10 02:13:07;;;;;;;7.05;4.43;;;;;;;6.52;83.82;92328.31;5096953;28;20024;-46
2021/12/10 02:15:33;;;;;;;12.10;6.90;;;;;;;6.58;83.97;92328.84;5101107;28;20016;-49
2021/12/10 02:17:59;;;;;;;10.30;4.20;;;;;;;6.58;84.23;92333.63;5097514;28;20028;-48
2021/12/10 02:20:33;;;;;;;7.68;4.05;;;;;;;6.71;83.66;92319.72;5098299;28;20028;-48
2021/12/10 02:23:01;;;;;;;7.78;5.03;;;;;;;6.85;83.13;92316.22;5100079;28;20023;-49
2021/12/10 02:25:28;;;;;;;7.93;5.00;;;;;;;6.69;83.07;92308.56;5099578;28;20110;-46
2021/12/10 02:27:55;;;;;;;7.68;4.88;;;;;;;6.59;83.70;92296.69;5098756;28;20016;-49
2021/12/10 02:30:22;;;;;;;12.10;5.57;;;;;;;6.61;83.21;92316.06;5099381;28;20036;-50
2021/12/10 02:32:48;;;;;;;9.32;4.35;;;;;;;6.51;83.10;92304.19;5098516;28;20028;-48
2021/12/10 02:35:15;;;;;;;12.07;4.53;;;;;;;6.38;83.76;92299.63;5099221;28;20475;-50
2021/12/10 02:37:41;;;;;;;9.38;5.10;;;;;;;6.39;83.32;92305.84;5100322;28;20088;-48
2021/12/10 02:40:09;;;;;;;11.32;5.68;;;;;;;6.19;84.50;92293.81;5103869;27;20039;-49
2021/12/10 02:42:35;;;;;;;9.75;4.30;;;;;;;6.20;85.18;92313.69;5100349;28;20046;-48
2021/12/10 02:45:00;;;;;;;22.60;8.18;;;;;;;6.16;85.07;92316.81;5103719;28;20505;-48
2021/12/10 02:47:26;;;;;;;18.58;10.48;;;;;;;6.11;85.98;92317.72;5103339;28;20016;-47
2021/12/10 02:49:52;;;;;;;13.02;6.00;;;;;;;6.13;86.35;92293.22;5100804;28;20039;-49
2021/12/10 02:52:19;;;;;;;11.88;7.47;;;;;;;6.18;85.80;92303.28;5101512;28;20514;-48
2021/12/10 02:54:45;;;;;;;11.07;5.18;;;;;;;6.16;85.77;92294.88;5101142;28;20031;-48
2021/12/10 02:57:14;;;;;;;20.38;9.15;;;;;;;5.98;85.21;92298.72;5101649;28;20034;-50
2021/12/10 02:59:40;;;;;;;15.77;8.52;;;;;;;5.96;86.25;92298.53;5101271;28;20028;-48
2021/12/10 03:02:11;;;;;;;21.02;10.40;;;;;;;5.96;86.39;92306.75;5102108;28;20028;-48
2021/12/10 03:04:37;;;;;;;21.27;12.00;;;;;;;5.96;87.00;92307.47;5102037;28;20629;-47
2021/12/10 03:07:07;;;;;;;16.75;9.85;;;;;;;5.82;87.96;92306.16;5103165;28;20111;-46
2021/12/10 03:09:33;;;;;;;14.63;9.20;;;;;;;5.76;88.73;92313.09;5101917;28;20039;-50
2021/12/10 03:12:00;;;;;;;13.18;7.90;;;;;;;5.67;89.44;92308.88;5097543;28;20027;-50
2021/12/10 03:14:32;;;;;;;11.60;7.60;;;;;;;5.62;90.04;92320.72;5105700;28;20039;-48
2021/12/10 03:17:01;;;;;;;20.05;10.50;;;;;;;5.53;89.44;92325.97;5105358;28;20029;-50
2021/12/10 03:19:26;;;;;;;15.02;8.85;;;;;;;5.59;89.43;92330.00;5101763;28;20024;-47
2021/12/10 03:21:52;;;;;;;16.52;9.15;;;;;;;5.58;89.31;92333.31;5101673;28;20039;-47
2021/12/10 03:24:22;;;;;;;19.50;9.50;;;;;;;5.60;89.50;92328.75;5103470;28;20020;-49
2021/12/10 03:26:51;;;;;;;15.65;9.25;;;;;;;5.63;89.00;92330.38;5098947;28;20024;-50
2021/12/10 03:29:21;;;;;;;15.43;9.10;;;;;;;5.66;88.59;92332.06;5098660;28;20521;-47
2021/12/10 03:31:48;;;;;;;18.48;9.95;;;;;;;5.63;88.24;92327.66;5100296;28;20035;-49
2021/12/10 03:34:14;;;;;;;15.63;8.32;;;;;;;5.68;88.14;92334.22;5102026;28;20027;-48
2021/12/10 03:36:45;;;;;;;14.10;8.93;;;;;;;5.73;87.57;92336.81;5100087;28;20607;-47
2021/12/10 03:39:13;;;;;;;16.13;9.50;;;;;;;5.67;87.40;92330.78;5100078;28;20027;-51
2021/12/10 03:41:38;;;;;;;17.17;10.05;;;;;;;5.73;87.01;92327.88;5102079;28;20084;-46
2021/12/10 03:44:04;;;;;;;14.57;8.70;;;;;;;5.66;86.90;92334.78;5100102;28;20032;-49
2021/12/10 03:46:30;;;;;;;15.63;9.77;;;;;;;5.53;86.63;92332.19;5100788;28;20032;-49
2021/12/10 03:48:55;;;;;;;16.63;11.13;;;;;;;5.45;86.95;92336.91;5102816;28;20019;-49
2021/12/10 03:51:23;;;;;;;15.45;10.48;;;;;;;5.46;86.95;92343.13;5100809;28;20417;-47
2021/12/10 03:53:50;;;;;;;16.27;10.25;;;;;;;5.38;86.79;92343.84;5102295;27;20031;-50
2021/12/10 03:56:19;;;;;;;18.00;10.90;;;;;;;5.47;86.23;92356.28;5101207;28;20493;-48
2021/12/10 03:58:45;;;;;;;20.48;11.15;;;;;;;5.43;85.86;92352.41;5095810;27;20035;-46
2021/12/10 04:01:12;;;;;;;24.42;12.60;;;;;;;5.52;85.48;92344.44;5101503;28;20513;-49
2021/12/10 04:03:39;;;;;;;21.65;12.75;;;;;;;5.35;85.15;92346.91;5099105;28;20019;-47
2021/12/10 04:06:05;;;;;;;24.92;14.43;;;;;;;5.26;85.92;92341.97;5100415;28;20068;-47
2021/12/10 04:08:32;;;;;;;27.15;16.52;;;;;;;5.39;85.48;92358.25;5100302;28;20024;-46
2021/12/10 04:10:58;;;;;;;26.02;17.10;;;;;;;5.29;85.13;92360.75;5100942;28;20032;-47
2021/12/10 04:13:24;;;;;;;23.42;15.95;;;;;;;5.45;85.02;92367.03;5097759;28;20036;-48
2021/12/10 04:15:49;;;;;;;19.80;13.18;;;;;;;5.51;84.12;92375.81;5099285;28;20032;-48
2021/12/10 04:18:16;;;;;;;22.73;14.40;;;;;;;5.42;83.21;92357.16;5102253;28;20019;-46
2021/12/10 04:20:42;;;;;;;19.30;10.63;;;;;;;5.63;82.23;92387.88;5099639;27;20027;-47
2021/12/10 04:23:11;;;;;;;16.88;11.00;;;;;;;5.65;81.70;92385.34;5100232;28;20024;-46
2021/12/10 04:25:37;;;;;;;18.50;11.82;;;;;;;5.74;80.47;92376.59;5100888;28;20540;-47
2021/12/10 04:28:09;;;;;;;19.98;13.20;;;;;;;5.76;80.53;92378.81;5100062;28;20153;-48
2021/12/10 04:30:39;;;;;;;24.20;13.80;;;;;;;5.62;81.03;92386.44;5099456;28;20020;-47
2021/12/10 04:33:06;;;;;;;29.45;16.13;;;;;;;5.53;81.62;92389.69;5099720;28;20042;-49
2021/12/10 04:35:31;;;;;;;23.50;14.45;;;;;;;5.56;81.11;92398.81;5097700;28;20035;-48
2021/12/10 04:37:57;;;;;;;27.67;15.85;;;;;;;5.24;82.42;92404.72;5098942;28;20032;-49
2021/12/10 04:40:23;;;;;;;28.98;15.48;;;;;;;5.39;81.87;92405.50;5098602;28;20034;-48
2021/12/10 04:42:50;;;;;;;26.92;15.05;;;;;;;5.50;81.63;92414.69;5098514;28;20615;-48
2021/12/10 04:45:18;;;;;;;24.08;15.70;;;;;;;5.51;81.33;92402.44;5096818;28;20036;-47
2021/12/10 04:47:45;;;;;;;22.43;15.43;;;;;;;5.49;80.72;92413.94;5100749;28;20020;-47
2021/12/10 04:50:12;;;;;;;31.45;16.42;;;;;;;5.56;80.43;92413.25;5100853;28;20031;-49
2021/12/10 04:52:37;;;;;;;26.75;17.13;;;;;;;5.60;79.70;92421.09;5099436;28;20036;-47
2021/12/10 04:55:07;;;;;;;36.28;18.58;;;;;;;5.38;80.83;92427.94;5100946;28;20527;-46
2021/12/10 04:57:33;;;;;;;29.08;17.70;;;;;;;5.45;80.98;92435.47;5098420;28;20031;-47
2021/12/10 04:59:58;;;;;;;30.55;18.73;;;;;;;5.37;80.63;92435.41;5099555;28;20420;-48
2021/12/10 05:02:25;;;;;;;34.50;20.90;;;;;;;5.05;82.15;92424.09;5096462;28;20032;-47
2021/12/10 05:04:56;;;;;;;50.88;29.98;;;;;;;4.85;82.20;92427.59;5099339;28;20508;-49
2021/12/10 05:07:21;;;;;;;31.02;18.65;;;;;;;5.01;81.86;92431.19;5099132;28;20409;-50
2021/12/10 05:09:47;;;;;;;37.50;21.20;;;;;;;4.97;82.24;92439.75;5097968;28;20035;-48
2021/12/10 05:12:12;;;;;;;34.35;21.48;;;;;;;4.79;82.60;92443.44;5099924;28;20020;-48
2021/12/10 05:14:38;;;;;;;35.38;19.55;;;;;;;4.78;82.93;92449.44;5099644;28;20024;-48
2021/12/10 05:17:07;;;;;;;31.52;18.48;;;;;;;4.69;83.52;92452.66;5097953;28;20450;-50
2021/12/10 05:19:34;;;;;;;31.60;18.73;;;;;;;4.65;83.35;92450.25;5097547;28;20020;-49
2021/12/10 05:22:01;;;;;;;28.58;17.60;;;;;;;4.78;83.62;92444.72;5099972;28;20045;-51
2021/12/10 05:24:29;;;;;;;38.38;20.67;;;;;;;4.75;83.60;92443.03;5099349;28;20025;-50
2021/12/10 05:26:55;;;;;;;28.85;18.40;;;;;;;4.73;83.23;92440.09;5099756;28;20036;-51
2021/12/10 05:29:21;;;;;;;44.15;23.02;;;;;;;4.80;83.07;92444.91;5097971;28;20035;-53
2021/12/10 05:31:47;;;;;;;34.75;21.08;;;;;;;4.76;83.42;92443.78;5102875;28;20650;-52
2021/12/10 05:34:14;;;;;;;32.05;20.80;;;;;;;4.82;83.84;92444.38;5099643;28;20114;-54
2021/12/10 05:36:40;;;;;;;36.17;21.98;;;;;;;4.89;83.93;92444.44;5103192;28;20038;-52
2021/12/10 05:39:07;;;;;;;38.42;21.50;;;;;;;4.96;83.62;92451.22;5100886;28;20729;-56
2021/12/10 05:41:33;;;;;;;51.20;27.98;;;;;;;5.04;82.35;92447.28;5099453;28;20024;-51
2021/12/10 05:43:59;;;;;;;40.35;22.98;;;;;;;4.84;81.94;92447.28;5100151;28;20031;-55
2021/12/10 05:46:25;;;;;;;36.70;22.55;;;;;;;4.93;82.67;92446.81;5100709;28;20051;-53
2021/12/10 05:48:51;;;;;;;49.70;29.98;;;;;;;4.96;82.52;92440.28;5097046;28;20028;-54
2021/12/10 05:51:18;;;;;;;42.95;26.55;;;;;;;4.99;81.79;92436.47;5097281;28;20136;-52
2021/12/10 05:53:44;;;;;;;47.03;27.63;;;;;;;4.90;82.33;92432.22;5100548;28;20475;-52
2021/12/10 05:56:10;;;;;;;42.35;26.90;;;;;;;4.85;82.40;92426.91;5099903;27;20097;-51
2021/12/10 05:58:36;;;;;;;42.50;27.27;;;;;;;5.00;81.92;92432.47;5097356;28;20028;-55
2021/12/10 06:01:09;;;;;;;39.10;25.85;;;;;;;5.01;81.79;92433.91;5096377;28;20050;-53
2021/12/10 06:03:37;;;;;;;40.45;25.45;;;;;;;5.05;81.03;92434.31;5095425;28;20807;-55
2021/12/10 06:06:04;;;;;;;43.85;28.58;;;;;;;4.99;80.47;92448.13;5099028;28;20036;-53
2021/12/10 06:08:30;;;;;;;39.92;24.23;;;;;;;4.85;80.85;92456.97;5097279;28;20024;-53
2021/12/10 06:10:57;;;;;;;53.47;40.03;;;;;;;4.85;81.20;92443.31;5099299;28;20152;-51
2021/12/10 06:13:23;;;;;;;72.72;41.38;;;;;;;4.35;82.41;92439.78;5098584;28;20530;-53
2021/12/10 06:15:49;;;;;;;78.43;45.45;;;;;;;4.26;83.66;92429.34;5100439;28;20039;-53
2021/12/10 06:18:14;;;;;;;179.05;82.80;;;;;;;4.07;83.97;92412.38;5098262;28;20027;-51
2021/12/10 06:20:44;;;;;;;163.55;78.38;;;;;;;4.38;84.28;92440.72;5096518;28;20405;-52
2021/12/10 06:23:09;;;;;;;119.78;56.67;;;;;;;4.20;83.85;92436.91;5096611;28;20023;-53
2021/12/10 06:25:36;;;;;;;101.18;51.03;;;;;;;4.15;84.38;92434.31;5095909;28;20061;-53
2021/12/10 06:28:03;;;;;;;82.70;44.17;;;;;;;4.22;84.58;92420.72;5100302;28;20035;-53
2021/12/10 06:30:31;;;;;;;42.97;25.65;;;;;;;4.07;84.64;92430.78;5098347;28;20031;-51
2021/12/10 06:32:59;;;;;;;51.17;29.02;;;;;;;4.21;84.85;92427.47;5098727;28;20112;-54
2021/12/10 06:35:26;;;;;;;45.33;27.58;;;;;;;4.45;84.14;92429.13;5096786;28;20034;-53
2021/12/10 06:37:53;;;;;;;42.40;24.02;;;;;;;4.36;84.09;92430.31;5097607;28;20398;-51
2021/12/10 06:40:22;;;;;;;48.90;27.95;;;;;;;4.48;83.87;92430.81;5099114;28;20458;-55
2021/12/10 06:42:48;;;;;;;93.38;43.40;;;;;;;4.57;83.41;92443.97;5099394;28;20119;-54
2021/12/10 06:45:16;;;;;;;59.00;33.88;;;;;;;4.43;83.93;92448.06;5096697;28;20054;-52
2021/12/10 06:47:47;;;;;;;60.53;36.22;;;;;;;4.45;84.04;92457.19;5098279;28;20678;-50
2021/12/10 06:50:17;;;;;;;75.97;45.75;;;;;;;4.43;83.91;92456.25;5099679;28;20527;-50
2021/12/10 06:52:43;;;;;;;63.97;38.92;;;;;;;4.53;83.45;92463.47;5095277;28;20132;-51
2021/12/10 06:55:10;;;;;;;65.05;37.53;;;;;;;4.57;82.77;92452.91;5094224;28;20036;-51
2021/12/10 06:57:37;;;;;;;72.03;38.35;;;;;;;4.36;83.10;92444.00;5094107;28;20478;-51
2021/12/10 07:00:33;;;;;;;60.03;36.22;;;;;;;4.55;82.95;92447.25;5094448;28;20036;-50
2021/12/10 07:02:59;;;;;;;65.75;40.63;;;;;;;4.66;82.11;92451.00;5095739;28;20096;-51
2021/12/10 07:05:25;;;;;;;68.53;40.75;;;;;;;4.75;81.75;92459.44;5093713;28;20027;-53
2021/12/10 07:07:51;;;;;;;75.10;48.25;;;;;;;4.51;82.74;92451.59;5094145;28;20032;-51
2021/12/10 07:10:18;;;;;;;69.50;44.03;;;;;;;4.54;82.52;92462.19;5097383;28;20028;-50
2021/12/10 07:12:45;;;;;;;44.42;29.50;;;;;;;4.60;82.09;92464.78;5096306;28;20058;-50
2021/12/10 07:15:13;;;;;;;54.22;31.70;;;;;;;4.55;82.63;92446.50;5094322;28;20059;-52
2021/12/10 07:17:42;;;;;;;53.63;30.88;;;;;;;4.78;82.51;92450.19;5093951;28;20417;-50
2021/12/10 07:20:09;;;;;;;86.18;45.95;;;;;;;4.50;82.84;92431.00;5095362;28;20069;-49
2021/12/10 07:22:35;;;;;;;51.15;32.03;;;;;;;4.57;83.25;92431.03;5093624;28;20499;-51
2021/12/10 07:25:01;;;;;;;38.50;25.45;;;;;;;4.75;83.16;92432.09;5096584;28;20041;-52
2021/12/10 07:27:28;;;;;;;45.08;29.77;;;;;;;4.81;83.10;92429.25;5094563;28;20027;-49
2021/12/10 07:29:54;;;;;;;94.45;55.22;;;;;;;4.79;82.81;92404.41;5096972;28;20116;-50
2021/12/10 07:32:19;;;;;;;141.32;82.22;;;;;;;4.74;83.00;92443.59;5098528;28;20035;-50
2021/12/10 07:34:45;;;;;;;136.68;81.47;;;;;;;4.32;83.76;92388.22;5098003;28;20032;-49
2021/12/10 07:37:10;;;;;;;119.60;72.63;;;;;;;4.47;84.83;92443.72;5097936;28;20020;-51
2021/12/10 07:39:37;;;;;;;121.60;65.88;;;;;;;4.38;84.95;92411.41;5097507;28;20472;-50
2021/12/10 07:42:06;;;;;;;121.10;65.88;;;;;;;4.31;85.65;92403.16;5097435;28;20081;-52
2021/12/10 07:44:32;;;;;;;101.55;61.33;;;;;;;4.39;85.87;92432.00;5095586;28;20139;-50
2021/12/10 07:47:01;;;;;;;84.85;51.65;;;;;;;4.58;85.14;92407.19;5100518;28;20036;-48
2021/12/10 07:49:30;;;;;;;69.50;43.30;;;;;;;5.00;84.19;92437.94;5099078;28;20028;-51
2021/12/10 07:51:56;;;;;;;61.03;38.33;;;;;;;5.21;84.32;92438.59;5098155;28;20520;-50
2021/12/10 07:54:22;;;;;;;60.58;41.05;;;;;;;5.29;83.20;92436.66;5097844;28;20038;-51
2021/12/10 07:56:49;;;;;;;50.63;31.15;;;;;;;5.45;82.02;92426.50;5097951;28;20031;-52
2021/12/10 07:59:14;;;;;;;63.53;40.22;;;;;;;5.36;82.18;92425.00;5099271;28;20028;-50
2021/12/10 08:01:40;;;;;;;226.82;127.15;;;;;;;5.05;83.00;92418.63;5097837;28;20072;-48
2021/12/10 08:04:06;;;;;;;160.50;92.38;;;;;;;5.07;83.20;92429.03;5098467;28;20157;-48
2021/12/10 08:06:32;;;;;;;118.75;69.03;;;;;;;4.92;83.53;92424.19;5096727;28;20024;-49
2021/12/10 08:08:58;;;;;;;126.43;79.45;;;;;;;4.77;84.40;92415.16;5096185;28;20024;-51
2021/12/10 08:11:25;;;;;;;101.70;64.88;;;;;;;4.97;84.86;92411.66;5096962;28;20032;-50
2021/12/10 08:13:50;;;;;;;102.85;62.00;;;;;;;5.22;84.47;92420.91;5099137;28;20139;-49
2021/12/10 08:16:16;;;;;;;66.88;41.45;;;;;;;5.28;83.56;92427.69;5096167;28;20473;-54
2021/12/10 08:18:43;;;;;;;84.93;52.63;;;;;;;5.39;83.16;92437.63;5097229;28;20028;-53
2021/12/10 08:21:09;;;;;;;86.55;53.00;;;;;;;5.44;83.05;92436.72;5095462;28;20056;-53
2021/12/10 08:23:36;;;;;;;90.10;58.70;;;;;;;5.52;83.30;92437.50;5095961;28;20105;-51
2021/12/10 08:26:02;;;;;;;90.85;53.90;;;;;;;5.14;84.11;92412.66;5094960;28;20483;-51
2021/12/10 08:28:28;;;;;;;77.25;48.50;;;;;;;5.40;84.63;92439.06;5096180;28;20024;-50
2021/12/10 08:30:55;;;;;;;79.85;52.45;;;;;;;5.63;83.13;92439.19;5097830;28;20032;-47
2021/12/10 08:33:22;;;;;;;57.50;38.53;;;;;;;5.29;83.19;92431.16;5097603;28;20424;-48
2021/12/10 08:35:52;;;;;;;62.95;40.83;;;;;;;5.41;84.19;92434.34;5095238;28;20063;-48
2021/12/10 08:38:19;;;;;;;70.85;44.95;;;;;;;5.57;84.17;92424.91;5096359;28;20031;-48
2021/12/10 08:40:56;;;;;;;80.03;49.40;;;;;;;5.72;83.16;92416.75;5097902;28;20039;-48
2021/12/10 08:43:21;;;;;;;72.97;48.00;;;;;;;5.87;82.90;92428.53;5096484;28;20446;-47
2021/12/10 08:45:47;;;;;;;70.13;44.33;;;;;;;6.03;82.24;92432.06;5096349;28;20058;-48
2021/12/10 08:48:13;;;;;;;58.60;37.45;;;;;;;6.01;82.16;92431.88;5096217;28;20051;-50
2021/12/10 08:50:40;;;;;;;62.33;41.42;;;;;;;6.10;81.59;92434.84;5096842;27;20019;-48
2021/12/10 08:53:12;;;;;;;52.92;32.85;;;;;;;6.09;81.08;92418.91;5097224;28;20122;-48
2021/12/10 08:55:38;;;;;;;69.28;45.58;;;;;;;6.13;80.73;92413.81;5094966;28;20035;-48
2021/12/10 08:58:05;;;;;;;55.30;39.42;;;;;;;6.22;80.56;92407.81;5095404;28;20098;-47
2021/12/10 09:00:31;;;;;;;76.15;49.38;;;;;;;6.28;79.86;92405.59;5096352;28;20031;-48
2021/12/10 09:02:57;;;;;;;69.85;45.47;;;;;;;6.33;79.87;92395.75;5095397;28;20393;-50
2021/12/10 09:05:23;;;;;;;72.65;48.13;;;;;;;6.32;79.80;92397.03;5097773;28;20058;-47
2021/12/10 09:07:49;;;;;;;73.07;48.88;;;;;;;6.37;79.91;92398.84;5096785;28;20028;-46
2021/12/10 09:10:32;;;;;;;95.47;61.88;;;;;;;6.44;79.54;92398.13;5097704;28;20876;-48
2021/12/10 09:12:58;;;;;;;78.00;53.72;;;;;;;6.46;79.46;92398.31;5096325;28;20122;-47
2021/12/10 09:15:25;;;;;;;72.15;48.20;;;;;;;6.53;79.67;92397.59;5097688;28;20150;-48
2021/12/10 09:17:52;;;;;;;63.42;40.60;;;;;;;6.61;79.58;92384.63;5096189;28;20032;-46
2021/12/10 09:20:25;;;;;;;71.18;43.83;;;;;;;6.49;79.58;92345.88;5096255;28;20119;-49
2021/12/10 09:22:51;;;;;;;55.15;38.97;;;;;;;6.68;79.94;92343.50;5094677;28;20092;-49
2021/12/10 09:25:17;;;;;;;53.45;37.50;;;;;;;6.97;79.81;92373.44;5094230;28;20064;-48
2021/12/10 09:27:43;;;;;;;54.92;37.90;;;;;;;7.13;78.95;92383.84;5094690;28;20496;-48
2021/12/10 09:30:12;;;;;;;51.60;32.03;;;;;;;7.29;78.10;92392.78;5096313;28;20040;-46
2021/12/10 09:32:38;;;;;;;56.88;38.92;;;;;;;7.43;75.71;92404.97;5097540;28;20034;-50
2021/12/10 09:35:07;;;;;;;56.05;36.58;;;;;;;7.53;75.44;92416.88;5096351;28;20454;-48
2021/12/10 09:37:34;;;;;;;49.80;32.53;;;;;;;7.49;76.32;92417.22;5093335;28;20023;-47
2021/12/10 09:40:01;;;;;;;45.92;32.63;;;;;;;7.49;75.52;92411.03;5095133;28;20509;-49
2021/12/10 09:42:26;;;;;;;48.63;31.85;;;;;;;7.54;75.55;92410.09;5096145;28;20103;-47
2021/12/10 09:44:53;;;;;;;46.92;31.48;;;;;;;7.55;75.94;92411.56;5093182;28;20051;-48
2021/12/10 09:47:20;;;;;;;49.33;31.95;;;;;;;7.45;76.07;92392.16;5095737;28;20024;-48
2021/12/10 09:49:48;;;;;;;51.28;34.83;;;;;;;7.39;76.99;92379.91;5095616;28;20024;-48
2021/12/10 09:52:18;;;;;;;55.63;37.00;;;;;;;7.35;77.59;92385.06;5095725;28;20546;-49
2021/12/10 09:54:44;;;;;;;62.85;38.97;;;;;;;7.35;77.85;92379.56;5097141;28;20027;-50
2021/12/10 09:57:15;;;;;;;55.47;36.30;;;;;;;7.36;77.84;92373.53;5097397;28;20019;-53
2021/12/10 09:59:42;;;;;;;61.35;38.13;;;;;;;7.38;77.85;92367.50;5095731;28;20028;-52
2021/12/10 10:02:10;;;;;;;53.92;37.30;;;;;;;7.43;78.02;92363.78;5100338;28;20065;-51
2021/12/10 10:04:38;;;;;;;56.55;37.40;;;;;;;7.45;77.83;92372.22;5098649;28;20031;-51
2021/12/10 10:07:12;;;;;;;64.30;40.10;;;;;;;7.36;77.78;92367.31;5100573;28;20046;-50
2021/12/10 10:09:41;;;;;;;54.83;35.67;;;;;;;7.31;77.96;92362.75;5097448;28;20032;-49
2021/12/10 10:12:12;;;;;;;60.83;39.75;;;;;;;7.23;77.82;92373.75;5099006;28;20020;-46
2021/12/10 10:14:38;;;;;;;63.97;39.75;;;;;;;7.13;78.29;92367.38;5098801;28;20522;-48
2021/12/10 10:17:06;;;;;;;56.47;36.85;;;;;;;7.07;78.55;92357.88;5098788;28;20024;-48
2021/12/10 10:19:31;;;;;;;70.57;44.05;;;;;;;6.65;80.18;92355.53;5098177;28;20062;-50
2021/12/10 10:21:58;;;;;;;86.93;56.00;;;;;;;6.42;82.07;92354.84;5099006;28;20114;-49
2021/12/10 10:24:27;;;;;;;73.65;48.63;;;;;;;6.63;81.78;92358.09;5096495;28;20028;-50
2021/12/10 10:27:00;;;;;;;70.35;47.55;;;;;;;6.74;81.44;92352.25;5098061;28;20046;-50
2021/12/10 10:29:28;;;;;;;75.15;48.03;;;;;;;6.79;81.93;92350.59;5096349;28;20024;-52
2021/12/10 10:32:07;;;;;;;87.93;49.33;;;;;;;6.57;81.87;92348.59;5098400;28;20107;-50
2021/12/10 10:34:33;;;;;;;102.60;58.50;;;;;;;6.72;81.71;92335.63;5097891;28;20441;-48
2021/12/10 10:36:58;;;;;;;104.95;59.08;;;;;;;6.84;81.78;92325.72;5099041;28;20030;-48
2021/12/10 10:39:32;;;;;;;89.15;56.33;;;;;;;6.85;81.45;92326.44;5099026;28;20028;-50
2021/12/10 10:41:59;;;;;;;84.35;53.00;;;;;;;6.93;80.98;92327.16;5101485;28;20420;-49
2021/12/10 10:44:25;;;;;;;100.95;56.53;;;;;;;7.00;81.02;92329.16;5099100;28;20044;-52
2021/12/10 10:46:55;;;;;;;99.85;58.42;;;;;;;7.00;81.43;92329.16;5096322;28;20024;-52
2021/12/10 10:49:34;;;;;;;122.03;69.80;;;;;;;6.56;82.41;92325.94;5101045;28;20077;-46
2021/12/10 10:52:29;;;;;;;89.32;52.85;;;;;;;6.57;83.05;92332.88;5097190;28;20125;-50
2021/12/10 10:55:18;;;;;;;101.18;59.67;;;;;;;6.71;82.83;92338.91;5096865;28;20412;-48
2021/12/10 10:58:03;;;;;;;94.07;57.13;;;;;;;6.71;82.50;92327.94;5095949;28;20036;-48
2021/12/10 11:00:32;;;;;;;71.80;45.97;;;;;;;6.80;82.00;92339.06;5103041;28;20050;-50
2021/12/10 11:03:04;;;;;;;74.63;47.28;;;;;;;6.88;81.65;92339.06;5099168;28;20031;-46
2021/12/10 11:05:31;;;;;;;71.38;48.10;;;;;;;6.92;80.94;92328.44;5103848;28;20039;-52
2021/12/10 11:08:00;;;;;;;119.38;78.80;;;;;;;6.69;81.37;92317.50;5099230;28;20042;-51
2021/12/10 11:10:35;;;;;;;66.70;43.70;;;;;;;6.42;83.16;92321.19;5100462;28;20071;-49
2021/12/10 11:13:08;;;;;;;37.78;26.42;;;;;;;6.51;83.41;92310.41;5101723;28;20035;-47
2021/12/10 11:15:34;;;;;;;31.35;22.42;;;;;;;6.69;82.63;92317.50;5099674;28;20564;-51
2021/12/10 11:17:59;;;;;;;42.17;26.35;;;;;;;6.72;82.86;92310.19;5101249;28;20027;-50
2021/12/10 11:20:29;;;;;;;41.25;26.38;;;;;;;6.89;82.71;92302.84;5103310;28;20039;-47
2021/12/10 11:22:58;;;;;;;37.42;25.40;;;;;;;7.03;82.05;92300.63;5099895;28;20493;-49
2021/12/10 11:25:30;;;;;;;25.30;18.08;;;;;;;7.03;81.77;92297.13;5102182;28;20043;-48
2021/12/10 11:28:26;;;;;;;37.28;23.70;;;;;;;7.07;81.10;92287.25;5100476;28;20036;-49
2021/12/10 11:31:02;;;;;;;47.65;30.35;;;;;;;7.05;80.97;92281.59;5101756;28;21277;-50
2021/12/10 11:33:34;;;;;;;62.72;40.55;;;;;;;7.00;81.52;92285.25;5101722;28;20059;-49
2021/12/10 11:36:06;;;;;;;59.80;39.70;;;;;;;7.13;81.82;92287.78;5099545;28;20485;-46
2021/12/10 11:38:33;;;;;;;72.78;42.20;;;;;;;7.23;81.00;92283.19;5099493;28;20085;-48
2021/12/10 11:41:17;;;;;;;75.38;48.55;;;;;;;7.27;80.81;92280.78;5102095;28;20035;-52
2021/12/10 11:49:38;;;;;;;72.47;47.47;;;;;;;6.77;82.51;92301.06;5100669;28;20505;-50